sensor_id;sensor_type;location;lat;lon;timestamp;temperature;humidity
22416;DHT22;12204;50.600;4.608;2023-07-31T00:02:54;25.10;73.90
22416;DHT22;12204;50.600;4.608;2023-07-31T00:08:00;25.10;73.90
22416;DHT22;12204;50.600;4.608;2023-07-31T00:13:03;25.10;73.90
22416;DHT22;12204;50.600;4.608;2023-07-31T00:18:08;25.10;74.20
22416;DHT22;12204;50.600;4.608;2023-07-31T00:23:11;25.10;74.20
22416;DHT22;12204;50.600;4.608;2023-07-31T00:28:15;25.10;74.20
22416;DHT22;12204;50.600;4.608;2023-07-31T00:33:20;25.10;74.20
22416;DHT22;12204;50.600;4.608;2023-07-31T00:38:23;25.10;74.20
22416;DHT22;12204;50.600;4.608;2023-07-31T00:43:27;25.10;74.20
22416;DHT22;12204;50.600;4.608;2023-07-31T00:48:32;25.10;74.80
22416;DHT22;12204;50.600;4.608;2023-07-31T00:53:36;25.10;74.50
22416;DHT22;12204;50.600;4.608;2023-07-31T00:58:41;25.10;74.40
22416;DHT22;12204;50.600;4.608;2023-07-31T01:03:46;25.10;74.20
22416;DHT22;12204;50.600;4.608;2023-07-31T01:08:57;25.10;74.40
22416;DHT22;12204;50.600;4.608;2023-07-31T01:14:05;25.20;74.30
22416;DHT22;12204;50.600;4.608;2023-07-31T01:19:11;25.10;74.20
22416;DHT22;12204;50.600;4.608;2023-07-31T01:24:22;25.10;74.20
22416;DHT22;12204;50.600;4.608;2023-07-31T01:29:38;25.20;74.30
22416;DHT22;12204;50.600;4.608;2023-07-31T01:34:48;25.20;74.30
22416;DHT22;12204;50.600;4.608;2023-07-31T01:39:54;25.20;74.20
22416;DHT22;12204;50.600;4.608;2023-07-31T01:44:58;25.10;74.20
22416;DHT22;12204;50.600;4.608;2023-07-31T01:50:02;25.10;74.30
22416;DHT22;12204;50.600;4.608;2023-07-31T01:55:07;25.20;74.60
22416;DHT22;12204;50.600;4.608;2023-07-31T02:00:13;25.10;74.70
22416;DHT22;12204;50.600;4.608;2023-07-31T02:05:18;25.10;74.50
22416;DHT22;12204;50.600;4.608;2023-07-31T02:10:21;25.10;74.60
22416;DHT22;12204;50.600;4.608;2023-07-31T02:15:27;25.10;74.40
22416;DHT22;12204;50.600;4.608;2023-07-31T02:20:33;25.10;74.30
22416;DHT22;12204;50.600;4.608;2023-07-31T02:25:37;25.20;74.50
22416;DHT22;12204;50.600;4.608;2023-07-31T02:30:44;25.20;74.40
22416;DHT22;12204;50.600;4.608;2023-07-31T02:35:48;25.10;74.30
22416;DHT22;12204;50.600;4.608;2023-07-31T02:40:52;25.10;74.20
22416;DHT22;12204;50.600;4.608;2023-07-31T02:45:57;25.10;74.10
22416;DHT22;12204;50.600;4.608;2023-07-31T02:51:01;25.10;74.40
22416;DHT22;12204;50.600;4.608;2023-07-31T02:56:05;25.10;74.30
22416;DHT22;12204;50.600;4.608;2023-07-31T03:01:09;25.10;74.30
22416;DHT22;12204;50.600;4.608;2023-07-31T03:06:13;25.10;74.30
22416;DHT22;12204;50.600;4.608;2023-07-31T03:11:16;25.20;74.30
22416;DHT22;12204;50.600;4.608;2023-07-31T03:16:21;25.10;74.10
22416;DHT22;12204;50.600;4.608;2023-07-31T03:21:25;25.10;74.30
22416;DHT22;12204;50.600;4.608;2023-07-31T03:26:31;25.10;74.30
22416;DHT22;12204;50.600;4.608;2023-07-31T03:31:36;25.20;74.60
22416;DHT22;12204;50.600;4.608;2023-07-31T03:36:39;25.10;74.50
22416;DHT22;12204;50.600;4.608;2023-07-31T03:41:44;25.10;74.50
22416;DHT22;12204;50.600;4.608;2023-07-31T03:46:49;25.10;74.40
22416;DHT22;12204;50.600;4.608;2023-07-31T03:51:54;25.20;74.90
22416;DHT22;12204;50.600;4.608;2023-07-31T03:56:57;25.10;74.60
22416;DHT22;12204;50.600;4.608;2023-07-31T04:02:02;25.10;74.50
22416;DHT22;12204;50.600;4.608;2023-07-31T04:07:06;25.20;74.70
22416;DHT22;12204;50.600;4.608;2023-07-31T04:12:10;25.10;74.40
22416;DHT22;12204;50.600;4.608;2023-07-31T04:17:14;25.20;73.70
22416;DHT22;12204;50.600;4.608;2023-07-31T04:22:18;25.10;74.10
22416;DHT22;12204;50.600;4.608;2023-07-31T04:27:22;25.10;74.00
22416;DHT22;12204;50.600;4.608;2023-07-31T04:32:26;25.10;74.00
22416;DHT22;12204;50.600;4.608;2023-07-31T04:37:31;25.10;74.80
22416;DHT22;12204;50.600;4.608;2023-07-31T04:42:35;25.10;74.80
22416;DHT22;12204;50.600;4.608;2023-07-31T04:47:39;25.10;74.70
22416;DHT22;12204;50.600;4.608;2023-07-31T04:52:43;25.10;74.30
22416;DHT22;12204;50.600;4.608;2023-07-31T04:57:46;25.10;74.70
22416;DHT22;12204;50.600;4.608;2023-07-31T05:02:51;25.10;73.80
22416;DHT22;12204;50.600;4.608;2023-07-31T05:07:55;25.10;74.70
22416;DHT22;12204;50.600;4.608;2023-07-31T05:12:59;25.10;74.20
22416;DHT22;12204;50.600;4.608;2023-07-31T05:18:03;25.10;74.30
22416;DHT22;12204;50.600;4.608;2023-07-31T05:23:07;25.10;74.50
22416;DHT22;12204;50.600;4.608;2023-07-31T05:28:11;25.10;75.20
22416;DHT22;12204;50.600;4.608;2023-07-31T05:33:17;25.10;74.10
22416;DHT22;12204;50.600;4.608;2023-07-31T05:38:20;25.10;73.20
22416;DHT22;12204;50.600;4.608;2023-07-31T05:43:24;25.10;74.70
22416;DHT22;12204;50.600;4.608;2023-07-31T05:48:28;25.10;75.00
22416;DHT22;12204;50.600;4.608;2023-07-31T05:53:32;25.10;74.40
22416;DHT22;12204;50.600;4.608;2023-07-31T05:58:36;25.10;74.50
22416;DHT22;12204;50.600;4.608;2023-07-31T06:03:41;25.10;73.50
22416;DHT22;12204;50.600;4.608;2023-07-31T06:08:45;25.00;72.70
22416;DHT22;12204;50.600;4.608;2023-07-31T06:13:48;24.90;72.10
22416;DHT22;12204;50.600;4.608;2023-07-31T06:18:53;24.90;71.30
22416;DHT22;12204;50.600;4.608;2023-07-31T06:23:59;24.80;71.00
22416;DHT22;12204;50.600;4.608;2023-07-31T06:29:02;24.80;71.20
22416;DHT22;12204;50.600;4.608;2023-07-31T06:34:07;24.80;71.70
22416;DHT22;12204;50.600;4.608;2023-07-31T06:39:11;24.70;72.30
22416;DHT22;12204;50.600;4.608;2023-07-31T06:44:15;24.80;72.10
22416;DHT22;12204;50.600;4.608;2023-07-31T06:49:20;24.80;72.10
22416;DHT22;12204;50.600;4.608;2023-07-31T06:54:23;24.80;72.10
22416;DHT22;12204;50.600;4.608;2023-07-31T06:59:27;24.80;72.20
22416;DHT22;12204;50.600;4.608;2023-07-31T07:04:31;24.80;72.30
22416;DHT22;12204;50.600;4.608;2023-07-31T07:09:35;24.80;72.30
22416;DHT22;12204;50.600;4.608;2023-07-31T07:14:38;24.80;72.20
22416;DHT22;12204;50.600;4.608;2023-07-31T07:19:43;24.80;72.30
22416;DHT22;12204;50.600;4.608;2023-07-31T07:24:47;24.80;72.30
22416;DHT22;12204;50.600;4.608;2023-07-31T07:29:51;24.80;72.40
22416;DHT22;12204;50.600;4.608;2023-07-31T07:34:56;24.80;72.40
22416;DHT22;12204;50.600;4.608;2023-07-31T07:40:03;24.80;72.40
22416;DHT22;12204;50.600;4.608;2023-07-31T07:45:09;24.80;72.40
22416;DHT22;12204;50.600;4.608;2023-07-31T07:50:14;24.80;72.40
22416;DHT22;12204;50.600;4.608;2023-07-31T07:55:18;24.80;72.40
22416;DHT22;12204;50.600;4.608;2023-07-31T08:00:22;24.80;72.40
22416;DHT22;12204;50.600;4.608;2023-07-31T08:05:27;24.80;72.30
22416;DHT22;12204;50.600;4.608;2023-07-31T08:10:34;24.80;72.40
22416;DHT22;12204;50.600;4.608;2023-07-31T08:15:38;24.80;72.40
22416;DHT22;12204;50.600;4.608;2023-07-31T08:20:44;24.80;72.30
22416;DHT22;12204;50.600;4.608;2023-07-31T08:25:47;24.80;72.40
22416;DHT22;12204;50.600;4.608;2023-07-31T08:30:52;24.80;72.30
22416;DHT22;12204;50.600;4.608;2023-07-31T08:35:57;24.80;72.40
22416;DHT22;12204;50.600;4.608;2023-07-31T08:41:03;24.80;72.30
22416;DHT22;12204;50.600;4.608;2023-07-31T08:46:07;24.80;72.40
22416;DHT22;12204;50.600;4.608;2023-07-31T08:51:14;24.80;72.30
22416;DHT22;12204;50.600;4.608;2023-07-31T08:56:18;24.80;72.30
22416;DHT22;12204;50.600;4.608;2023-07-31T09:01:23;24.80;73.10
22416;DHT22;12204;50.600;4.608;2023-07-31T09:06:29;24.80;72.20
22416;DHT22;12204;50.600;4.608;2023-07-31T09:11:33;24.80;72.30
22416;DHT22;12204;50.600;4.608;2023-07-31T09:16:51;24.80;72.20
22416;DHT22;12204;50.600;4.608;2023-07-31T09:21:58;24.80;72.20
22416;DHT22;12204;50.600;4.608;2023-07-31T09:27:02;24.80;72.20
22416;DHT22;12204;50.600;4.608;2023-07-31T09:32:15;24.80;72.20
22416;DHT22;12204;50.600;4.608;2023-07-31T09:37:21;24.80;72.20
22416;DHT22;12204;50.600;4.608;2023-07-31T09:42:26;24.80;72.10
22416;DHT22;12204;50.600;4.608;2023-07-31T09:47:30;24.80;72.10
22416;DHT22;12204;50.600;4.608;2023-07-31T09:52:38;24.80;72.10
22416;DHT22;12204;50.600;4.608;2023-07-31T09:57:44;24.80;72.10
22416;DHT22;12204;50.600;4.608;2023-07-31T10:02:51;24.80;72.10
22416;DHT22;12204;50.600;4.608;2023-07-31T10:07:57;24.80;72.90
22416;DHT22;12204;50.600;4.608;2023-07-31T10:13:01;24.80;72.10
22416;DHT22;12204;50.600;4.608;2023-07-31T10:18:06;24.80;72.00
22416;DHT22;12204;50.600;4.608;2023-07-31T10:23:11;24.80;72.00
22416;DHT22;12204;50.600;4.608;2023-07-31T10:28:15;24.80;72.00
22416;DHT22;12204;50.600;4.608;2023-07-31T10:33:20;24.80;72.00
22416;DHT22;12204;50.600;4.608;2023-07-31T10:38:25;24.80;72.00
22416;DHT22;12204;50.600;4.608;2023-07-31T10:43:28;24.80;71.90
22416;DHT22;12204;50.600;4.608;2023-07-31T10:48:34;24.90;72.00
22416;DHT22;12204;50.600;4.608;2023-07-31T10:53:40;24.90;72.00
22416;DHT22;12204;50.600;4.608;2023-07-31T10:58:45;24.90;72.00
22416;DHT22;12204;50.600;4.608;2023-07-31T11:03:50;24.80;71.90
22416;DHT22;12204;50.600;4.608;2023-07-31T11:08:56;24.90;71.90
22416;DHT22;12204;50.600;4.608;2023-07-31T11:13:59;24.80;71.90
22416;DHT22;12204;50.600;4.608;2023-07-31T11:19:08;24.90;72.00
22416;DHT22;12204;50.600;4.608;2023-07-31T11:24:13;24.80;71.80
22416;DHT22;12204;50.600;4.608;2023-07-31T11:29:16;24.80;71.90
22416;DHT22;12204;50.600;4.608;2023-07-31T11:34:20;24.90;72.00
22416;DHT22;12204;50.600;4.608;2023-07-31T11:39:25;24.90;71.90
22416;DHT22;12204;50.600;4.608;2023-07-31T11:44:38;24.80;71.90
22416;DHT22;12204;50.600;4.608;2023-07-31T11:49:45;24.80;71.90
22416;DHT22;12204;50.600;4.608;2023-07-31T11:54:50;24.80;71.90
22416;DHT22;12204;50.600;4.608;2023-07-31T11:59:54;24.80;71.90
22416;DHT22;12204;50.600;4.608;2023-07-31T12:04:58;24.90;71.90
22416;DHT22;12204;50.600;4.608;2023-07-31T12:10:03;24.90;71.90
22416;DHT22;12204;50.600;4.608;2023-07-31T12:15:14;24.80;71.90
22416;DHT22;12204;50.600;4.608;2023-07-31T12:20:20;24.80;71.80
22416;DHT22;12204;50.600;4.608;2023-07-31T12:25:28;24.80;71.80
22416;DHT22;12204;50.600;4.608;2023-07-31T12:30:34;24.80;71.80
22416;DHT22;12204;50.600;4.608;2023-07-31T12:35:40;24.80;71.80
22416;DHT22;12204;50.600;4.608;2023-07-31T12:40:46;24.80;71.90
22416;DHT22;12204;50.600;4.608;2023-07-31T12:45:50;24.80;71.90
22416;DHT22;12204;50.600;4.608;2023-07-31T12:50:54;24.80;71.90
22416;DHT22;12204;50.600;4.608;2023-07-31T12:55:59;24.80;71.90
22416;DHT22;12204;50.600;4.608;2023-07-31T13:01:02;24.80;71.90
22416;DHT22;12204;50.600;4.608;2023-07-31T13:06:06;24.80;71.90
22416;DHT22;12204;50.600;4.608;2023-07-31T13:11:10;24.80;71.80
22416;DHT22;12204;50.600;4.608;2023-07-31T13:16:14;24.80;71.90
22416;DHT22;12204;50.600;4.608;2023-07-31T13:21:17;24.80;71.80
22416;DHT22;12204;50.600;4.608;2023-07-31T13:26:22;24.80;71.90
22416;DHT22;12204;50.600;4.608;2023-07-31T13:31:26;24.80;71.90
22416;DHT22;12204;50.600;4.608;2023-07-31T13:36:29;24.80;71.90
22416;DHT22;12204;50.600;4.608;2023-07-31T13:41:34;24.80;72.70
22416;DHT22;12204;50.600;4.608;2023-07-31T13:46:38;24.80;72.00
22416;DHT22;12204;50.600;4.608;2023-07-31T13:51:42;24.80;71.90
22416;DHT22;12204;50.600;4.608;2023-07-31T13:56:47;24.80;71.90
22416;DHT22;12204;50.600;4.608;2023-07-31T14:01:51;24.80;72.20
22416;DHT22;12204;50.600;4.608;2023-07-31T14:06:55;24.80;71.90
22416;DHT22;12204;50.600;4.608;2023-07-31T14:12:01;24.80;72.10
22416;DHT22;12204;50.600;4.608;2023-07-31T14:17:05;24.80;72.00
22416;DHT22;12204;50.600;4.608;2023-07-31T14:22:09;24.80;72.00
22416;DHT22;12204;50.600;4.608;2023-07-31T14:27:14;24.80;72.00
22416;DHT22;12204;50.600;4.608;2023-07-31T14:32:17;24.70;72.00
22416;DHT22;12204;50.600;4.608;2023-07-31T14:37:21;24.80;72.00
22416;DHT22;12204;50.600;4.608;2023-07-31T14:42:26;24.80;72.00
22416;DHT22;12204;50.600;4.608;2023-07-31T14:47:30;24.70;72.00
22416;DHT22;12204;50.600;4.608;2023-07-31T14:52:34;24.80;72.10
22416;DHT22;12204;50.600;4.608;2023-07-31T14:57:38;24.80;72.00
22416;DHT22;12204;50.600;4.608;2023-07-31T15:02:42;24.80;72.10
22416;DHT22;12204;50.600;4.608;2023-07-31T15:07:46;24.70;72.10
22416;DHT22;12204;50.600;4.608;2023-07-31T15:12:50;24.70;72.00
22416;DHT22;12204;50.600;4.608;2023-07-31T15:17:54;24.80;72.20
22416;DHT22;12204;50.600;4.608;2023-07-31T15:22:58;24.80;72.10
22416;DHT22;12204;50.600;4.608;2023-07-31T15:28:03;24.80;72.10
22416;DHT22;12204;50.600;4.608;2023-07-31T15:33:09;24.80;72.10
22416;DHT22;12204;50.600;4.608;2023-07-31T15:38:12;24.70;72.10
22416;DHT22;12204;50.600;4.608;2023-07-31T15:43:18;24.70;72.00
22416;DHT22;12204;50.600;4.608;2023-07-31T15:48:23;24.70;72.10
22416;DHT22;12204;50.600;4.608;2023-07-31T15:53:26;24.70;72.00
22416;DHT22;12204;50.600;4.608;2023-07-31T15:58:31;24.70;72.00
22416;DHT22;12204;50.600;4.608;2023-07-31T16:03:35;24.70;72.80
22416;DHT22;12204;50.600;4.608;2023-07-31T16:08:38;24.70;72.00
22416;DHT22;12204;50.600;4.608;2023-07-31T16:13:44;24.70;72.10
22416;DHT22;12204;50.600;4.608;2023-07-31T16:18:48;24.70;72.10
22416;DHT22;12204;50.600;4.608;2023-07-31T16:23:51;24.70;72.10
22416;DHT22;12204;50.600;4.608;2023-07-31T16:28:56;24.70;72.10
22416;DHT22;12204;50.600;4.608;2023-07-31T16:34:00;24.70;72.20
22416;DHT22;12204;50.600;4.608;2023-07-31T16:39:03;24.70;72.10
22416;DHT22;12204;50.600;4.608;2023-07-31T16:44:08;24.60;72.10
22416;DHT22;12204;50.600;4.608;2023-07-31T16:49:16;24.70;72.20
22416;DHT22;12204;50.600;4.608;2023-07-31T16:54:19;24.60;72.20
22416;DHT22;12204;50.600;4.608;2023-07-31T16:59:24;24.70;72.10
22416;DHT22;12204;50.600;4.608;2023-07-31T17:04:28;24.70;72.20
22416;DHT22;12204;50.600;4.608;2023-07-31T17:09:33;24.60;72.20
22416;DHT22;12204;50.600;4.608;2023-07-31T17:14:37;24.60;72.20
22416;DHT22;12204;50.600;4.608;2023-07-31T17:19:41;24.60;72.30
22416;DHT22;12204;50.600;4.608;2023-07-31T17:24:44;24.60;72.20
22416;DHT22;12204;50.600;4.608;2023-07-31T17:29:49;24.60;72.30
22416;DHT22;12204;50.600;4.608;2023-07-31T17:34:53;24.60;72.20
22416;DHT22;12204;50.600;4.608;2023-07-31T17:39:57;24.60;72.10
22416;DHT22;12204;50.600;4.608;2023-07-31T17:45:02;24.60;72.30
22416;DHT22;12204;50.600;4.608;2023-07-31T17:50:06;24.60;72.20
22416;DHT22;12204;50.600;4.608;2023-07-31T17:55:11;24.60;72.30
22416;DHT22;12204;50.600;4.608;2023-07-31T18:00:16;24.60;72.20
22416;DHT22;12204;50.600;4.608;2023-07-31T18:05:20;24.60;72.30
22416;DHT22;12204;50.600;4.608;2023-07-31T18:10:23;24.60;72.20
22416;DHT22;12204;50.600;4.608;2023-07-31T18:15:28;24.60;73.00
22416;DHT22;12204;50.600;4.608;2023-07-31T18:20:31;24.60;72.30
22416;DHT22;12204;50.600;4.608;2023-07-31T18:25:35;24.60;72.30
22416;DHT22;12204;50.600;4.608;2023-07-31T18:30:40;24.60;72.30
22416;DHT22;12204;50.600;4.608;2023-07-31T18:35:44;24.60;72.30
22416;DHT22;12204;50.600;4.608;2023-07-31T18:40:47;24.60;72.40
22416;DHT22;12204;50.600;4.608;2023-07-31T18:45:52;24.60;72.30
22416;DHT22;12204;50.600;4.608;2023-07-31T18:50:55;24.60;72.20
22416;DHT22;12204;50.600;4.608;2023-07-31T18:55:59;24.50;72.20
22416;DHT22;12204;50.600;4.608;2023-07-31T19:01:04;24.60;72.20
22416;DHT22;12204;50.600;4.608;2023-07-31T19:06:07;24.60;72.30
22416;DHT22;12204;50.600;4.608;2023-07-31T19:11:11;24.60;72.30
22416;DHT22;12204;50.600;4.608;2023-07-31T19:16:33;24.50;72.20
22416;DHT22;12204;50.600;4.608;2023-07-31T19:21:37;24.60;72.30
22416;DHT22;12204;50.600;4.608;2023-07-31T19:26:41;24.50;72.20
22416;DHT22;12204;50.600;4.608;2023-07-31T19:31:46;24.50;72.30
22416;DHT22;12204;50.600;4.608;2023-07-31T19:36:50;24.50;72.20
22416;DHT22;12204;50.600;4.608;2023-07-31T19:41:53;24.50;72.20
22416;DHT22;12204;50.600;4.608;2023-07-31T19:46:58;24.50;72.20
22416;DHT22;12204;50.600;4.608;2023-07-31T19:52:06;24.50;72.30
22416;DHT22;12204;50.600;4.608;2023-07-31T19:57:10;24.50;72.30
22416;DHT22;12204;50.600;4.608;2023-07-31T20:02:15;24.50;72.30
22416;DHT22;12204;50.600;4.608;2023-07-31T20:07:18;24.50;72.30
22416;DHT22;12204;50.600;4.608;2023-07-31T20:12:23;24.50;72.40
22416;DHT22;12204;50.600;4.608;2023-07-31T20:17:29;24.50;72.30
22416;DHT22;12204;50.600;4.608;2023-07-31T20:22:33;24.50;72.30
22416;DHT22;12204;50.600;4.608;2023-07-31T20:27:37;24.50;72.30
22416;DHT22;12204;50.600;4.608;2023-07-31T20:32:42;24.50;72.40
22416;DHT22;12204;50.600;4.608;2023-07-31T20:37:46;24.40;72.70
22416;DHT22;12204;50.600;4.608;2023-07-31T20:42:55;24.40;72.80
22416;DHT22;12204;50.600;4.608;2023-07-31T20:48:03;24.40;73.40
22416;DHT22;12204;50.600;4.608;2023-07-31T20:53:08;24.40;73.70
22416;DHT22;12204;50.600;4.608;2023-07-31T20:58:13;24.40;73.80
22416;DHT22;12204;50.600;4.608;2023-07-31T21:03:18;24.40;74.20
22416;DHT22;12204;50.600;4.608;2023-07-31T21:08:22;24.40;74.20
22416;DHT22;12204;50.600;4.608;2023-07-31T21:13:25;24.40;74.40
22416;DHT22;12204;50.600;4.608;2023-07-31T21:18:30;24.30;74.50
22416;DHT22;12204;50.600;4.608;2023-07-31T21:23:34;24.40;74.60
22416;DHT22;12204;50.600;4.608;2023-07-31T21:28:37;24.40;74.70
22416;DHT22;12204;50.600;4.608;2023-07-31T21:33:42;24.30;74.80
22416;DHT22;12204;50.600;4.608;2023-07-31T21:38:46;24.40;74.90
22416;DHT22;12204;50.600;4.608;2023-07-31T21:43:49;24.40;75.00
22416;DHT22;12204;50.600;4.608;2023-07-31T21:48:55;24.40;75.00
22416;DHT22;12204;50.600;4.608;2023-07-31T21:53:58;24.40;75.30
22416;DHT22;12204;50.600;4.608;2023-07-31T21:59:03;24.50;75.30
22416;DHT22;12204;50.600;4.608;2023-07-31T22:04:07;24.50;75.50
22416;DHT22;12204;50.600;4.608;2023-07-31T22:09:11;24.50;75.40
22416;DHT22;12204;50.600;4.608;2023-07-31T22:14:14;24.50;75.50
22416;DHT22;12204;50.600;4.608;2023-07-31T22:19:19;24.50;75.60
22416;DHT22;12204;50.600;4.608;2023-07-31T22:24:23;24.50;75.70
22416;DHT22;12204;50.600;4.608;2023-07-31T22:29:27;24.50;75.70
22416;DHT22;12204;50.600;4.608;2023-07-31T22:34:41;24.50;75.80
22416;DHT22;12204;50.600;4.608;2023-07-31T22:39:59;24.50;75.80
22416;DHT22;12204;50.600;4.608;2023-07-31T22:45:03;24.60;76.00
22416;DHT22;12204;50.600;4.608;2023-07-31T22:50:09;24.60;76.00
22416;DHT22;12204;50.600;4.608;2023-07-31T22:55:13;24.60;75.90
22416;DHT22;12204;50.600;4.608;2023-07-31T23:00:16;24.60;75.90
22416;DHT22;12204;50.600;4.608;2023-07-31T23:05:21;24.60;75.90
22416;DHT22;12204;50.600;4.608;2023-07-31T23:10:26;24.60;75.80
22416;DHT22;12204;50.600;4.608;2023-07-31T23:15:30;24.60;76.20
22416;DHT22;12204;50.600;4.608;2023-07-31T23:20:35;24.60;76.00
22416;DHT22;12204;50.600;4.608;2023-07-31T23:25:39;24.60;76.10
22416;DHT22;12204;50.600;4.608;2023-07-31T23:30:42;24.60;76.10
22416;DHT22;12204;50.600;4.608;2023-07-31T23:35:48;24.60;76.30
22416;DHT22;12204;50.600;4.608;2023-07-31T23:40:51;24.60;76.40
22416;DHT22;12204;50.600;4.608;2023-07-31T23:45:55;24.60;76.50
22416;DHT22;12204;50.600;4.608;2023-07-31T23:51:00;24.60;76.40
22416;DHT22;12204;50.600;4.608;2023-07-31T23:56:04;24.60;76.60
